Time;durP1;ratioP1;P1;durP2;ratioP2;P2;SDS_P1;SDS_P2;PMS_P1;PMS_P2;Temp;Humidity;BMP_temperature;BMP_pressure;BME280_temperature;BME280_humidity;BME280_pressure;Samples;Min_cycle;Max_cycle;Signal;HPM_P1;HPM_P2
2022/05/27 00:02:00;;;;;;;12.40;3.58;;;15.20;94.70;;;;;;5033762;28;20064;-73
2022/05/27 00:04:25;;;;;;;14.40;4.35;;;15.20;94.90;;;;;;5064443;28;20470;-72
2022/05/27 00:06:51;;;;;;;16.75;4.18;;;15.20;95.00;;;;;;5034678;28;20094;-71
2022/05/27 00:09:17;;;;;;;15.48;3.97;;;15.10;95.00;;;;;;5049366;28;20029;-70
2022/05/27 00:11:42;;;;;;;17.90;3.97;;;15.10;95.10;;;;;;5037778;28;20036;-73
2022/05/27 00:14:08;;;;;;;12.93;3.33;;;15.10;95.10;;;;;;5056262;28;20383;-74
2022/05/27 00:16:33;;;;;;;11.73;3.90;;;15.10;95.10;;;;;;5064432;28;20107;-70
2022/05/27 00:18:59;;;;;;;16.42;3.80;;;15.10;95.20;;;;;;5053005;28;20044;-75
2022/05/27 00:21:26;;;;;;;15.70;3.67;;;15.10;95.20;;;;;;5039804;28;20032;-73
2022/05/27 00:23:52;;;;;;;15.85;4.57;;;15.10;95.20;;;;;;5038533;28;20060;-71
2022/05/27 00:26:18;;;;;;;13.98;3.25;;;15.10;95.20;;;;;;5056268;28;20083;-69
2022/05/27 00:28:43;;;;;;;15.13;3.85;;;15.10;95.60;;;;;;5036181;28;20542;-71
2022/05/27 00:31:09;;;;;;;13.02;3.85;;;15.10;95.30;;;;;;5063565;28;20028;-70
2022/05/27 00:33:38;;;;;;;9.75;3.10;;;15.10;95.30;;;;;;5052854;28;20025;-75
2022/05/27 00:36:09;;;;;;;12.98;3.58;;;15.00;95.20;;;;;;5046148;28;20486;-71
2022/05/27 00:38:36;;;;;;;12.27;3.33;;;15.10;95.30;;;;;;5031892;28;20040;-73
2022/05/27 00:41:02;;;;;;;11.38;3.03;;;15.10;95.20;;;;;;5059847;28;20128;-72
2022/05/27 00:43:28;;;;;;;12.27;3.70;;;15.10;95.20;;;;;;5029963;28;20057;-73
2022/05/27 00:46:02;;;;;;;19.20;3.30;;;15.00;95.30;;;;;;5053444;28;20059;-70
2022/05/27 00:48:28;;;;;;;14.55;3.75;;;15.00;95.30;;;;;;5050193;28;20028;-70
2022/05/27 00:50:55;;;;;;;13.98;3.60;;;15.00;95.30;;;;;;5054340;28;20426;-75
2022/05/27 00:53:40;;;;;;;11.57;3.20;;;15.00;95.30;;;;;;5057103;28;20059;-74
2022/05/27 00:56:09;;;;;;;14.40;3.58;;;15.00;95.20;;;;;;5034211;28;20079;-70
2022/05/27 00:58:50;;;;;;;11.30;3.10;;;15.00;95.10;;;;;;5040556;28;20032;-72
2022/05/27 01:01:16;;;;;;;6.97;2.42;;;15.00;95.10;;;;;;5066749;28;20032;-73
2022/05/27 01:03:43;;;;;;;8.05;3.00;;;15.00;94.80;;;;;;5041083;28;20029;-71
2022/05/27 01:06:09;;;;;;;8.98;2.47;;;15.00;94.60;;;;;;5053091;28;20173;-70
2022/05/27 01:08:35;;;;;;;9.45;2.40;;;15.10;94.50;;;;;;5067214;28;20500;-71
2022/05/27 01:11:09;;;;;;;11.55;2.83;;;15.10;94.60;;;;;;5055503;28;20032;-74
2022/05/27 01:13:56;;;;;;;7.53;2.33;;;15.00;94.60;;;;;;5042055;28;20040;-73
2022/05/27 01:16:57;;;;;;;10.60;2.67;;;15.10;94.40;;;;;;5071424;28;20033;-75
2022/05/27 01:22:50;;;;;;;11.23;3.28;;;15.10;94.50;;;;;;5072199;28;20089;-69
2022/05/27 01:25:36;;;;;;;9.27;2.58;;;15.10;94.60;;;;;;5039042;28;20143;-72
2022/05/27 01:28:30;;;;;;;8.88;2.80;;;15.00;94.70;;;;;;5052965;28;20079;-75
2022/05/27 01:31:17;;;;;;;12.50;3.25;;;15.00;94.80;;;;;;5067042;28;20029;-69
2022/05/27 01:34:03;;;;;;;10.15;2.80;;;15.00;94.80;;;;;;5060518;28;20474;-71
2022/05/27 01:36:52;;;;;;;11.88;2.65;;;15.00;94.80;;;;;;5054454;28;20037;-71
2022/05/27 01:39:47;;;;;;;9.80;3.05;;;15.00;94.90;;;;;;5042320;28;20025;-70
2022/05/27 01:42:38;;;;;;;9.75;3.05;;;15.00;94.80;;;;;;5034620;28;20087;-78
2022/05/27 01:45:24;;;;;;;9.15;2.47;;;15.00;94.90;;;;;;5069409;28;20033;-71
2022/05/27 01:47:55;;;;;;;11.75;2.83;;;15.00;94.90;;;;;;5065323;28;20037;-72
2022/05/27 01:50:34;;;;;;;10.90;3.08;;;14.90;94.90;;;;;;5059941;28;20112;-72
2022/05/27 01:53:19;;;;;;;12.18;3.13;;;14.90;95.00;;;;;;5053011;28;20047;-71
2022/05/27 01:56:01;;;;;;;11.52;2.85;;;14.90;95.10;;;;;;5062329;28;20033;-71
2022/05/27 01:58:37;;;;;;;9.93;2.95;;;14.90;95.20;;;;;;5057815;28;20025;-73
2022/05/27 02:01:07;;;;;;;12.52;3.30;;;14.90;95.50;;;;;;5062572;28;20032;-76
2022/05/27 02:03:40;;;;;;;12.68;3.58;;;14.90;95.50;;;;;;5047864;28;20057;-72
2022/05/27 02:06:25;;;;;;;13.27;3.40;;;14.90;95.60;;;;;;5032991;28;20038;-70
2022/05/27 02:09:03;;;;;;;12.07;3.17;;;14.90;95.70;;;;;;5036917;28;20028;-72
2022/05/27 02:11:30;;;;;;;13.40;3.15;;;14.90;95.70;;;;;;5058493;28;20064;-70
2022/05/27 02:14:17;;;;;;;10.13;2.80;;;14.80;95.70;;;;;;5065173;28;20053;-70
2022/05/27 02:16:49;;;;;;;9.73;2.83;;;14.80;95.70;;;;;;5050784;28;20693;-70
2022/05/27 02:19:38;;;;;;;14.48;3.55;;;14.90;95.80;;;;;;5048550;28;20028;-73
2022/05/27 02:22:13;;;;;;;9.60;2.95;;;14.80;95.90;;;;;;5068598;28;20044;-72
2022/05/27 02:24:48;;;;;;;11.30;3.00;;;14.80;95.90;;;;;;5068131;28;20037;-70
2022/05/27 02:27:40;;;;;;;13.88;3.40;;;14.80;96.00;;;;;;5033154;28;20032;-75
2022/05/27 02:30:10;;;;;;;14.15;3.30;;;14.80;96.10;;;;;;5029025;28;20041;-72
2022/05/27 02:35:07;;;;;;;12.50;3.50;;;14.80;96.10;;;;;;5046500;28;20064;-71
2022/05/27 02:35:37;;;;;;;13.38;3.08;;;14.80;96.10;;;;;;5066265;28;20090;-78
2022/05/27 02:38:03;;;;;;;13.30;3.60;;;14.80;96.10;;;;;;5045028;28;20068;-76
2022/05/27 02:40:35;;;;;;;11.85;3.40;;;14.80;96.10;;;;;;5052360;28;20101;-73
2022/05/27 02:43:31;;;;;;;11.20;2.85;;;14.80;96.00;;;;;;5064875;28;20112;-70
2022/05/27 02:46:11;;;;;;;9.13;3.20;;;14.80;96.00;;;;;;5055490;28;20031;-70
2022/05/27 02:48:40;;;;;;;;;;;14.80;96.10;;;;;;5065397;28;20120;-71
2022/05/27 02:51:24;;;;;;;13.13;3.05;;;14.80;96.20;;;;;;5053013;28;19973;-71
2022/05/27 02:54:16;;;;;;;11.38;3.38;;;14.80;96.10;;;;;;5056310;28;20041;-72
2022/05/27 02:57:13;;;;;;;10.60;2.67;;;14.70;96.10;;;;;;5053376;28;20032;-71
2022/05/27 02:59:40;;;;;;;9.25;2.83;;;14.70;96.10;;;;;;5065047;28;20131;-76
2022/05/27 03:02:12;;;;;;;13.85;2.92;;;14.70;96.20;;;;;;5053125;28;20047;-73
2022/05/27 03:04:42;;;;;;;13.20;3.20;;;14.70;96.10;;;;;;5056395;28;20032;-76
2022/05/27 03:07:33;;;;;;;12.98;3.45;;;14.80;96.20;;;;;;5055696;28;20067;-72
2022/05/27 03:10:17;;;;;;;14.00;2.97;;;14.70;96.20;;;;;;5032424;28;20029;-72
2022/05/27 03:12:53;;;;;;;10.27;2.80;;;14.70;96.20;;;;;;5050005;28;20044;-70
2022/05/27 03:15:44;;;;;;;12.52;3.15;;;14.70;96.30;;;;;;5049757;28;20685;-70
2022/05/27 03:18:24;;;;;;;12.02;3.03;;;14.70;96.30;;;;;;5049939;28;20029;-70
2022/05/27 03:21:08;;;;;;;12.23;3.08;;;14.70;96.40;;;;;;5050433;28;20031;-73
2022/05/27 03:24:15;;;;;;;10.18;2.97;;;14.70;96.50;;;;;;5032946;28;20131;-70
2022/05/27 03:27:00;;;;;;;10.85;3.20;;;14.70;96.50;;;;;;4989035;28;20066;-71
2022/05/27 03:29:31;;;;;;;10.10;2.88;;;14.70;96.60;;;;;;4989652;28;20038;-70
2022/05/27 03:32:07;;;;;;;12.50;3.65;;;14.70;96.60;;;;;;4988952;28;20493;-72
2022/05/27 03:34:53;;;;;;;10.43;3.17;;;14.70;96.70;;;;;;4988225;28;20508;-69
2022/05/27 03:37:40;;;;;;;13.10;3.40;;;14.70;96.80;;;;;;4987188;28;20061;-69
2022/05/27 03:40:21;;;;;;;9.93;3.10;;;14.70;96.80;;;;;;4971218;28;20045;-71
2022/05/27 03:42:48;;;;;;;9.73;2.90;;;14.60;96.90;;;;;;4988216;28;20465;-69
2022/05/27 03:45:17;;;;;;;10.32;3.38;;;14.60;96.90;;;;;;4987188;28;20072;-72
2022/05/27 03:47:45;;;;;;;14.77;3.70;;;14.60;96.90;;;;;;4987474;28;20058;-71
2022/05/27 03:50:15;;;;;;;12.13;3.15;;;14.60;97.00;;;;;;4988026;28;20046;-72
2022/05/27 03:52:44;;;;;;;11.30;2.55;;;14.60;97.10;;;;;;4971543;28;20520;-70
2022/05/27 03:55:13;;;;;;;11.65;3.58;;;14.60;97.10;;;;;;4988399;28;20034;-71
2022/05/27 03:57:38;;;;;;;8.52;2.78;;;14.60;97.30;;;;;;4987835;28;20031;-70
2022/05/27 04:00:06;;;;;;;9.90;3.00;;;14.60;97.30;;;;;;4988992;28;20082;-70
2022/05/27 04:02:32;;;;;;;7.88;2.50;;;14.50;97.20;;;;;;4989263;28;20488;-70
2022/05/27 04:04:57;;;;;;;9.63;3.10;;;14.50;97.20;;;;;;5030265;28;20064;-71
2022/05/27 04:07:23;;;;;;;7.53;2.60;;;14.50;97.20;;;;;;5030455;28;20406;-75
2022/05/27 04:09:49;;;;;;;7.60;2.78;;;14.50;97.30;;;;;;5039310;28;20046;-71
2022/05/27 04:12:14;;;;;;;9.65;2.63;;;14.50;97.40;;;;;;5049387;28;20043;-73
2022/05/27 04:14:41;;;;;;;8.35;2.50;;;14.50;97.40;;;;;;5048874;28;20566;-70
2022/05/27 04:19:50;;;;;;;10.05;2.45;;;14.50;97.60;;;;;;5049250;28;20036;-70
2022/05/27 04:22:16;;;;;;;10.07;2.95;;;14.40;97.50;;;;;;5055891;28;20028;-70
2022/05/27 04:24:42;;;;;;;8.68;2.70;;;14.40;97.50;;;;;;5057683;28;20429;-72
2022/05/27 04:27:16;;;;;;;9.82;2.60;;;14.40;97.50;;;;;;5050777;28;20036;-69
2022/05/27 04:29:48;;;;;;;9.10;2.50;;;14.40;97.50;;;;;;5048626;28;20036;-71
2022/05/27 04:32:15;;;;;;;8.15;2.35;;;14.30;97.50;;;;;;5056483;28;20554;-77
2022/05/27 04:34:41;;;;;;;9.43;2.58;;;14.30;97.60;;;;;;5049980;28;20059;-70
2022/05/27 04:37:08;;;;;;;7.18;2.42;;;14.30;97.60;;;;;;5052869;28;20076;-70
2022/05/27 04:39:34;;;;;;;7.68;2.30;;;14.30;97.60;;;;;;5032604;28;20064;-69
2022/05/27 04:42:00;;;;;;;8.68;2.90;;;14.30;97.70;;;;;;5058318;28;20044;-70
2022/05/27 04:44:26;;;;;;;11.10;3.08;;;14.30;97.80;;;;;;5053879;28;20429;-70
2022/05/27 04:46:51;;;;;;;10.45;2.55;;;14.20;97.80;;;;;;5053205;28;20045;-73
2022/05/27 04:52:02;;;;;;;8.63;2.42;;;14.20;97.90;;;;;;5039581;28;20040;-74
2022/05/27 04:54:29;;;;;;;6.30;2.10;;;14.20;97.90;;;;;;5028533;28;20132;-70
2022/05/27 04:56:55;;;;;;;8.55;2.55;;;14.20;98.00;;;;;;5028778;28;20133;-73
2022/05/27 04:59:21;;;;;;;9.05;2.28;;;14.20;98.00;;;;;;5029941;28;20115;-69
2022/05/27 05:01:47;;;;;;;6.90;2.45;;;14.10;98.00;;;;;;5027674;28;20099;-72
2022/05/27 05:04:13;;;;;;;9.07;2.10;;;14.10;98.10;;;;;;5030898;28;20036;-70
2022/05/27 05:06:39;;;;;;;7.25;2.50;;;14.10;98.10;;;;;;5049219;28;20021;-72
2022/05/27 05:09:04;;;;;;;5.47;2.25;;;14.10;98.10;;;;;;5048628;28;20059;-72
2022/05/27 05:11:31;;;;;;;5.82;2.13;;;14.10;98.10;;;;;;5031094;28;20060;-71
2022/05/27 05:13:57;;;;;;;7.57;2.08;;;14.10;98.10;;;;;;5048510;28;20029;-70
2022/05/27 05:16:22;;;;;;;5.75;2.20;;;14.10;98.00;;;;;;5049396;28;20033;-72
2022/05/27 05:18:48;;;;;;;5.18;1.65;;;14.10;98.00;;;;;;5048446;28;20041;-70
2022/05/27 05:21:15;;;;;;;4.85;1.80;;;14.20;97.90;;;;;;5030197;28;20037;-72
2022/05/27 05:23:40;;;;;;;4.10;1.42;;;14.20;97.80;;;;;;5048617;28;20080;-72
2022/05/27 05:26:06;;;;;;;4.97;2.10;;;14.20;97.70;;;;;;5048513;28;20437;-71
2022/05/27 05:28:32;;;;;;;3.97;1.48;;;14.20;97.60;;;;;;5049264;28;20402;-70
2022/05/27 05:30:57;;;;;;;3.85;1.50;;;14.20;97.70;;;;;;5029911;28;20080;-70
2022/05/27 05:33:23;;;;;;;3.55;1.33;;;14.30;97.30;;;;;;5049177;28;20086;-74
2022/05/27 05:35:49;;;;;;;5.10;1.50;;;14.30;97.20;;;;;;5049488;28;20399;-76
2022/05/27 05:38:15;;;;;;;3.30;1.38;;;14.40;97.10;;;;;;5048703;28;20045;-71
2022/05/27 05:40:41;;;;;;;3.65;1.25;;;14.40;97.10;;;;;;5047845;28;20489;-71
2022/05/27 05:43:06;;;;;;;3.63;1.20;;;14.50;96.80;;;;;;5031098;28;20191;-70
2022/05/27 05:45:32;;;;;;;2.85;1.08;;;14.50;96.50;;;;;;5051363;28;20583;-69
2022/05/27 05:47:58;;;;;;;3.85;0.95;;;14.60;96.20;;;;;;5051988;28;20029;-70
2022/05/27 05:50:24;;;;;;;2.58;0.95;;;14.60;96.10;;;;;;5063710;28;20062;-69
2022/05/27 05:52:50;;;;;;;3.70;0.93;;;14.70;96.20;;;;;;5050927;28;20106;-71
2022/05/27 05:55:17;;;;;;;4.72;1.40;;;14.70;95.80;;;;;;5032562;28;20033;-71
2022/05/27 05:57:45;;;;;;;1.92;1.08;;;14.80;95.80;;;;;;5048527;28;20037;-73
2022/05/27 06:00:13;;;;;;;2.28;1.20;;;14.80;95.90;;;;;;5025393;28;20068;-70
2022/05/27 06:02:40;;;;;;;3.80;1.30;;;14.80;95.80;;;;;;5025109;28;20029;-73
2022/05/27 06:05:06;;;;;;;2.72;1.00;;;14.90;95.90;;;;;;5031596;28;20120;-70
2022/05/27 06:07:33;;;;;;;3.50;1.25;;;14.80;95.80;;;;;;5038803;28;20039;-71
2022/05/27 06:10:00;;;;;;;5.25;1.13;;;14.90;95.50;;;;;;5038717;28;20033;-70
2022/05/27 06:12:27;;;;;;;3.95;1.27;;;14.90;95.50;;;;;;5042889;28;20033;-70
2022/05/27 06:14:53;;;;;;;3.97;1.40;;;14.90;95.50;;;;;;5046317;28;20111;-71
2022/05/27 06:17:20;;;;;;;3.67;1.73;;;14.90;95.00;;;;;;5031281;28;20498;-73
2022/05/27 06:19:46;;;;;;;3.40;1.60;;;14.90;95.10;;;;;;5041975;28;20134;-73
2022/05/27 06:22:12;;;;;;;2.83;1.30;;;14.90;95.10;;;;;;5025186;28;20437;-74
2022/05/27 06:24:38;;;;;;;3.67;1.20;;;15.00;95.10;;;;;;5049007;28;20029;-70
2022/05/27 06:27:07;;;;;;;4.80;1.48;;;15.00;94.60;;;;;;5051655;28;20071;-69
2022/05/27 06:35:02;;;;;;;4.13;1.50;;;15.10;94.40;;;;;;5046506;28;20067;-70
2022/05/27 06:37:28;;;;;;;4.18;1.42;;;15.20;93.60;;;;;;5056728;28;20055;-71
2022/05/27 06:39:54;;;;;;;4.28;1.50;;;15.30;93.40;;;;;;5031590;28;20033;-73
2022/05/27 06:42:20;;;;;;;4.15;1.42;;;15.30;93.30;;;;;;5033645;28;20119;-71
2022/05/27 06:44:46;;;;;;;3.78;1.58;;;15.40;93.20;;;;;;5049617;28;20656;-71
2022/05/27 06:47:13;;;;;;;4.13;1.38;;;15.50;92.80;;;;;;5049730;28;20434;-74
2022/05/27 06:49:40;;;;;;;3.33;1.60;;;15.60;92.10;;;;;;5047852;28;20664;-72
2022/05/27 06:52:07;;;;;;;4.80;1.65;;;15.60;92.50;;;;;;5030870;28;20029;-70
2022/05/27 06:54:34;;;;;;;5.05;1.80;;;15.60;92.30;;;;;;5046817;28;20029;-71
2022/05/27 06:57:00;;;;;;;3.20;1.40;;;15.70;91.50;;;;;;5042409;28;20112;-68
2022/05/27 06:59:26;;;;;;;3.45;1.40;;;15.80;92.00;;;;;;5050665;28;20033;-68
2022/05/27 07:01:51;;;;;;;5.75;1.70;;;15.80;91.00;;;;;;5048088;28;20044;-68
2022/05/27 07:04:20;;;;;;;5.03;1.50;;;15.90;90.70;;;;;;5050090;28;20032;-70
2022/05/27 07:06:47;;;;;;;4.03;1.48;;;15.90;90.40;;;;;;5043983;28;20041;-68
2022/05/27 07:09:17;;;;;;;3.67;1.45;;;15.90;90.70;;;;;;5049598;28;20549;-70
2022/05/27 07:11:44;;;;;;;;;;;16.00;90.40;;;;;;5050752;28;20085;-69
2022/05/27 07:14:10;;;;;;;4.68;2.03;;;16.00;90.30;;;;;;5054135;28;20007;-70
2022/05/27 07:16:36;;;;;;;2.90;1.52;;;16.10;87.90;;;;;;5049417;28;20115;-70
2022/05/27 07:19:01;;;;;;;3.70;1.60;;;16.00;86.70;;;;;;5047506;28;20039;-70
2022/05/27 07:21:27;;;;;;;5.88;1.67;;;15.90;87.80;;;;;;5030940;28;20124;-72
2022/05/27 07:23:54;;;;;;;6.25;1.67;;;16.00;85.70;;;;;;5048920;28;20029;-70
2022/05/27 07:26:24;;;;;;;5.18;1.77;;;16.10;85.50;;;;;;5048857;28;20626;-70
2022/05/27 07:28:51;;;;;;;5.28;1.50;;;16.20;86.60;;;;;;5047733;28;20668;-68
2022/05/27 07:31:17;;;;;;;5.38;1.98;;;16.40;87.20;;;;;;5048987;28;20033;-69
2022/05/27 07:33:44;;;;;;;4.65;1.73;;;16.50;86.80;;;;;;5048696;28;20036;-70
2022/05/27 07:36:10;;;;;;;7.03;2.30;;;16.60;86.60;;;;;;5030542;28;20063;-71
2022/05/27 07:38:36;;;;;;;4.57;1.65;;;16.60;86.90;;;;;;5026788;28;20402;-72
2022/05/27 07:41:02;;;;;;;5.57;1.58;;;16.60;85.30;;;;;;5046351;28;20039;-71
2022/05/27 07:43:28;;;;;;;6.55;1.77;;;16.50;84.80;;;;;;5048512;28;20037;-71
2022/05/27 07:45:54;;;;;;;6.50;1.60;;;16.40;85.40;;;;;;5048856;28;20040;-71
2022/05/27 07:48:19;;;;;;;3.70;1.52;;;16.40;86.80;;;;;;5048752;28;20025;-70
2022/05/27 07:50:45;;;;;;;4.93;1.70;;;16.40;86.00;;;;;;5048778;28;20037;-69
2022/05/27 07:53:11;;;;;;;5.18;1.80;;;16.30;85.40;;;;;;5048726;28;20390;-73
2022/05/27 07:55:37;;;;;;;5.97;2.38;;;16.10;86.50;;;;;;5052580;28;20041;-71
2022/05/27 07:58:03;;;;;;;5.20;2.00;;;16.00;87.20;;;;;;5032285;28;20033;-71
2022/05/27 08:00:34;;;;;;;5.25;1.70;;;16.00;87.30;;;;;;5042248;28;20032;-73
2022/05/27 08:03:00;;;;;;;6.10;1.52;;;16.20;87.40;;;;;;5027143;28;20087;-71
2022/05/27 08:05:28;;;;;;;5.55;1.70;;;16.50;86.80;;;;;;5029662;28;20123;-73
2022/05/27 08:07:57;;;;;;;4.40;1.70;;;16.70;82.90;;;;;;5047903;28;20037;-72
2022/05/27 08:10:26;;;;;;;4.53;1.67;;;16.90;81.20;;;;;;5061926;28;20037;-72
2022/05/27 08:12:51;;;;;;;6.95;1.88;;;16.90;78.70;;;;;;5043187;28;20044;-73
2022/05/27 08:15:18;;;;;;;5.38;1.83;;;17.00;75.70;;;;;;5057898;28;20037;-73
2022/05/27 08:17:44;;;;;;;6.57;1.98;;;17.00;77.10;;;;;;5027287;28;20036;-71
2022/05/27 08:20:13;;;;;;;6.72;1.85;;;17.10;76.60;;;;;;5038965;28;20501;-72
2022/05/27 08:22:39;;;;;;;6.40;1.88;;;17.10;76.80;;;;;;5044304;28;20064;-70
2022/05/27 08:25:05;;;;;;;5.85;1.65;;;17.20;74.40;;;;;;5048390;28;20065;-73
2022/05/27 08:27:31;;;;;;;9.88;2.53;;;17.30;75.20;;;;;;5035694;28;20024;-71
2022/05/27 08:29:56;;;;;;;3.60;1.60;;;17.40;76.70;;;;;;5029368;28;20099;-70
2022/05/27 08:32:22;;;;;;;5.57;1.48;;;17.50;75.50;;;;;;5047555;28;20400;-74
2022/05/27 08:40:29;;;;;;;5.10;1.77;;;17.40;72.70;;;;;;5047049;28;20074;-73
2022/05/27 08:43:09;;;;;;;5.85;1.70;;;17.40;73.40;;;;;;5046829;28;20044;-71
2022/05/27 08:45:43;;;;;;;6.10;1.92;;;17.50;73.20;;;;;;5046700;28;20033;-73
2022/05/27 08:48:10;;;;;;;4.90;2.15;;;17.60;72.40;;;;;;5027470;28;20029;-71
2022/05/27 08:51:17;;;;;;;7.15;2.13;;;17.70;72.50;;;;;;5047245;28;20057;-69
2022/05/27 08:53:58;;;;;;;7.18;2.00;;;17.70;74.30;;;;;;5001617;28;20107;-72
2022/05/27 08:59:40;;;;;;;7.55;2.35;;;17.80;73.50;;;;;;5045012;28;20044;-74
2022/05/27 09:02:23;;;;;;;7.20;2.17;;;17.60;74.00;;;;;;5046765;28;20044;-70
2022/05/27 09:04:55;;;;;;;7.13;2.20;;;17.50;74.50;;;;;;5047073;28;20040;-72
2022/05/27 09:07:46;;;;;;;5.07;1.77;;;17.60;73.50;;;;;;5047048;28;20040;-72
2022/05/27 09:10:48;;;;;;;8.25;1.58;;;17.70;72.60;;;;;;5046834;28;20033;-74
2022/05/27 09:13:24;;;;;;;8.13;2.15;;;18.00;70.60;;;;;;5004694;28;20079;-73
2022/05/27 09:16:00;;;;;;;7.75;2.15;;;18.20;72.10;;;;;;5037870;28;20040;-72
2022/05/27 09:18:40;;;;;;;6.85;1.90;;;18.30;72.70;;;;;;5048797;28;20048;-76
2022/05/27 09:21:26;;;;;;;6.70;1.98;;;18.20;70.20;;;;;;5069492;28;20048;-74
2022/05/27 09:24:03;;;;;;;8.48;2.47;;;18.30;69.00;;;;;;5070181;28;20506;-75
2022/05/27 09:26:50;;;;;;;8.65;2.10;;;18.40;70.10;;;;;;5062282;28;20013;-69
2022/05/27 09:29:50;;;;;;;8.73;1.52;;;18.40;69.70;;;;;;5033921;28;20036;-73
2022/05/27 09:32:27;;;;;;;7.30;2.10;;;18.40;69.60;;;;;;5039264;28;20103;-70
2022/05/27 09:34:55;;;;;;;5.65;2.00;;;18.50;71.10;;;;;;5034802;28;20037;-73
2022/05/27 09:37:27;;;;;;;10.00;2.15;;;18.60;70.70;;;;;;5046581;28;20052;-74
2022/05/27 09:39:56;;;;;;;7.13;2.20;;;18.70;67.60;;;;;;5046209;28;20044;-70
2022/05/27 09:42:56;;;;;;;5.23;1.83;;;18.90;69.10;;;;;;5048591;28;20033;-72
2022/05/27 09:45:21;;;;;;;6.47;1.90;;;18.90;66.30;;;;;;4970190;28;20043;-70
2022/05/27 09:47:47;;;;;;;8.20;2.20;;;18.80;67.10;;;;;;4984834;28;20053;-73
2022/05/27 09:50:40;;;;;;;6.25;2.00;;;18.90;67.00;;;;;;4986905;28;20125;-73
2022/05/27 09:53:07;;;;;;;7.53;2.10;;;18.90;67.90;;;;;;4987304;28;20117;-73
2022/05/27 09:56:08;;;;;;;7.35;2.03;;;18.90;64.80;;;;;;4987416;28;20037;-70
2022/05/27 09:58:37;;;;;;;10.38;1.90;;;18.90;65.30;;;;;;4949592;28;20045;-71
2022/05/27 10:01:17;;;;;;;5.88;1.98;;;19.00;65.20;;;;;;4971439;28;20038;-72
2022/05/27 10:03:43;;;;;;;7.47;1.88;;;19.10;66.00;;;;;;4989973;28;20042;-71
2022/05/27 10:06:16;;;;;;;5.28;1.83;;;19.10;65.10;;;;;;4987561;28;20113;-70
2022/05/27 10:08:47;;;;;;;8.05;2.50;;;19.20;64.10;;;;;;4983652;28;20078;-72
2022/05/27 10:11:24;;;;;;;10.20;1.77;;;19.20;63.90;;;;;;4985195;28;20580;-70
2022/05/27 10:14:29;;;;;;;9.30;2.50;;;19.20;66.30;;;;;;4991945;28;20034;-69
2022/05/27 10:17:10;;;;;;;8.25;2.22;;;19.20;65.50;;;;;;4962294;28;20128;-72
2022/05/27 10:19:42;;;;;;;9.82;2.50;;;19.30;65.40;;;;;;4987431;28;20488;-72
2022/05/27 10:22:29;;;;;;;6.72;1.90;;;19.40;65.80;;;;;;5017229;28;20128;-73
2022/05/27 10:25:08;;;;;;;7.00;2.03;;;19.50;60.80;;;;;;5049447;28;20040;-72
2022/05/27 10:27:38;;;;;;;8.82;2.17;;;19.60;63.50;;;;;;5049761;28;20390;-72
2022/05/27 10:30:25;;;;;;;8.13;2.15;;;19.60;62.80;;;;;;5031427;28;20041;-74
2022/05/27 10:32:52;;;;;;;6.90;1.77;;;19.80;62.40;;;;;;5060958;28;20032;-71
2022/05/27 10:35:20;;;;;;;8.18;2.05;;;19.80;62.00;;;;;;5051496;28;20474;-71
2022/05/27 10:37:52;;;;;;;7.93;1.90;;;20.00;59.50;;;;;;5049637;28;20384;-71
2022/05/27 10:40:26;;;;;;;6.57;2.05;;;20.10;60.60;;;;;;5050776;28;20360;-71
2022/05/27 10:42:52;;;;;;;6.28;1.73;;;20.30;60.60;;;;;;5034377;28;20095;-76
2022/05/27 10:45:22;;;;;;;9.25;2.40;;;20.40;59.10;;;;;;5040583;28;20021;-72
2022/05/27 10:48:07;;;;;;;5.68;1.77;;;20.60;56.80;;;;;;5012001;28;20646;-74
2022/05/27 10:50:56;;;;;;;7.40;1.90;;;20.60;55.50;;;;;;5046129;28;20033;-74
2022/05/27 10:53:51;;;;;;;6.18;2.10;;;20.50;58.10;;;;;;5033573;28;20040;-75
2022/05/27 11:02:04;;;;;;;6.97;1.92;;;20.40;57.50;;;;;;5052990;28;20056;-70
2022/05/27 11:03:12;;;;;;;9.85;2.15;;;20.40;57.70;;;;;;5045893;28;20044;-73
2022/05/27 11:06:05;;;;;;;7.90;2.28;;;20.50;58.70;;;;;;5060988;28;20560;-74
2022/05/27 11:08:34;;;;;;;7.70;1.80;;;20.70;58.70;;;;;;5068958;28;20029;-71
2022/05/27 11:11:32;;;;;;;6.38;2.35;;;20.80;56.30;;;;;;5051334;28;20093;-75
2022/05/27 11:17:20;;;;;;;10.95;2.67;;;21.60;55.20;;;;;;5069069;28;20039;-74
2022/05/27 11:20:01;;;;;;;13.35;2.40;;;21.80;54.90;;;;;;5068182;28;20036;-74
2022/05/27 11:23:08;;;;;;;8.18;2.25;;;22.20;54.30;;;;;;5036199;28;20041;-70
2022/05/27 11:25:52;;;;;;;8.95;2.30;;;23.90;50.20;;;;;;5015244;28;20325;-73
2022/05/27 11:28:39;;;;;;;8.55;2.15;;;23.50;48.20;;;;;;5045339;28;20033;-72
2022/05/27 11:31:11;;;;;;;8.73;2.10;;;22.90;49.40;;;;;;5040503;28;20339;-73
2022/05/27 11:34:13;;;;;;;6.97;2.10;;;22.50;50.80;;;;;;5043984;28;20124;-76
2022/05/27 11:37:05;;;;;;;8.20;2.00;;;22.00;50.00;;;;;;5055564;28;20043;-71
2022/05/27 11:39:55;;;;;;;7.80;2.00;;;21.80;50.00;;;;;;5050558;28;20462;-72
2022/05/27 11:42:46;;;;;;;9.13;2.42;;;21.60;51.00;;;;;;5031579;28;20028;-71
2022/05/27 11:45:15;;;;;;;7.35;2.20;;;21.60;50.80;;;;;;5034973;28;20048;-72
2022/05/27 11:48:05;;;;;;;7.47;2.00;;;21.70;51.00;;;;;;5061147;28;20037;-70
2022/05/27 11:50:42;;;;;;;9.52;2.10;;;21.80;51.70;;;;;;5045811;28;20036;-72
2022/05/27 11:53:34;;;;;;;9.52;2.10;;;22.00;51.00;;;;;;5049361;28;20064;-73
2022/05/27 11:56:09;;;;;;;8.60;2.08;;;21.80;50.50;;;;;;5037999;28;20059;-72
2022/05/27 11:58:59;;;;;;;8.02;2.08;;;21.60;49.60;;;;;;5030324;28;20486;-70
2022/05/27 12:01:35;;;;;;;8.30;1.95;;;21.50;48.30;;;;;;5030154;28;20094;-73
2022/05/27 12:04:15;;;;;;;7.85;2.28;;;21.40;49.50;;;;;;5061073;28;20035;-72
2022/05/27 12:06:49;;;;;;;7.03;2.10;;;21.40;50.20;;;;;;5049306;28;20024;-73
2022/05/27 12:09:20;;;;;;;8.60;2.05;;;21.30;51.10;;;;;;5038258;28;20038;-77
2022/05/27 12:11:52;;;;;;;8.23;2.30;;;21.40;51.30;;;;;;5048042;28;20029;-73
2022/05/27 12:14:44;;;;;;;6.90;2.00;;;21.30;52.40;;;;;;5044703;28;20045;-73
2022/05/27 12:17:15;;;;;;;7.47;2.35;;;21.40;51.50;;;;;;5026756;28;20053;-72
2022/05/27 12:19:48;;;;;;;6.72;2.05;;;21.40;51.20;;;;;;5055611;28;20032;-70
2022/05/27 12:22:21;;;;;;;8.30;2.47;;;21.40;52.30;;;;;;5057440;28;20033;-72
2022/05/27 12:24:51;;;;;;;9.45;2.38;;;21.30;50.70;;;;;;5058701;28;20086;-74
2022/05/27 12:27:19;;;;;;;8.18;2.30;;;21.40;51.20;;;;;;5050874;28;20029;-70
2022/05/27 12:29:47;;;;;;;5.85;2.08;;;21.40;51.00;;;;;;5047283;28;20051;-71
2022/05/27 12:32:14;;;;;;;11.98;3.10;;;21.40;52.60;;;;;;5049233;28;20074;-72
2022/05/27 12:34:45;;;;;;;8.77;2.40;;;21.50;52.40;;;;;;5051571;28;20041;-71
2022/05/27 12:37:25;;;;;;;8.38;2.30;;;21.60;52.90;;;;;;5063838;28;20102;-72
2022/05/27 12:40:12;;;;;;;10.05;2.50;;;21.70;49.80;;;;;;5035961;28;20154;-75
2022/05/27 12:42:40;;;;;;;6.40;1.90;;;21.80;50.00;;;;;;5047617;28;20082;-74
2022/05/27 12:45:18;;;;;;;8.50;2.65;;;21.90;49.20;;;;;;5045780;28;20028;-72
2022/05/27 12:47:47;;;;;;;8.02;2.17;;;21.80;49.80;;;;;;5041076;28;20096;-76
2022/05/27 12:50:20;;;;;;;8.15;2.00;;;21.80;48.10;;;;;;5041220;28;20029;-72
2022/05/27 12:52:49;;;;;;;9.85;2.33;;;21.70;47.70;;;;;;5039741;28;20056;-74
2022/05/27 13:00:55;;;;;;;11.53;2.67;;;21.60;49.80;;;;;;5051225;28;20059;-73
2022/05/27 13:01:32;;;;;;;10.57;2.65;;;21.80;49.60;;;;;;5051564;28;20040;-72
2022/05/27 13:04:01;;;;;;;8.63;2.33;;;21.80;49.20;;;;;;5051175;28;20064;-75
2022/05/27 13:06:26;;;;;;;8.75;2.40;;;21.70;49.40;;;;;;5048341;28;20486;-74
2022/05/27 13:08:52;;;;;;;9.02;2.42;;;21.70;50.40;;;;;;5031517;28;20025;-73
2022/05/27 13:11:27;;;;;;;9.65;2.42;;;21.60;49.90;;;;;;5040864;28;20036;-73
2022/05/27 13:14:15;;;;;;;10.10;2.88;;;21.70;51.20;;;;;;5038700;28;20033;-75
2022/05/27 13:16:47;;;;;;;8.43;2.10;;;21.80;49.60;;;;;;5032877;28;20121;-75
2022/05/27 13:19:22;;;;;;;9.00;2.10;;;21.80;49.10;;;;;;5029433;28;20021;-73
2022/05/27 13:21:54;;;;;;;8.98;2.17;;;21.80;47.00;;;;;;5028221;28;20040;-70
2022/05/27 13:24:20;;;;;;;8.25;2.15;;;21.80;49.40;;;;;;5017902;28;20025;-71
2022/05/27 13:26:54;;;;;;;7.70;2.00;;;21.90;49.80;;;;;;5038852;28;20036;-75
2022/05/27 13:29:26;;;;;;;14.07;2.53;;;22.10;48.30;;;;;;5033137;28;20056;-75
2022/05/27 13:32:09;;;;;;;9.73;2.53;;;22.00;46.30;;;;;;5037488;28;20045;-75
2022/05/27 13:34:47;;;;;;;11.05;2.40;;;22.00;47.90;;;;;;5038696;28;20025;-75
2022/05/27 13:37:22;;;;;;;7.55;2.03;;;22.00;46.40;;;;;;5044062;28;20045;-73
2022/05/27 13:39:54;;;;;;;7.13;2.22;;;22.10;44.90;;;;;;5039696;28;20040;-77
2022/05/27 13:42:29;;;;;;;9.07;2.50;;;22.10;44.30;;;;;;5041993;28;20048;-73
2022/05/27 13:44:59;;;;;;;10.43;2.67;;;22.20;48.10;;;;;;5047482;28;20119;-70
2022/05/27 13:47:27;;;;;;;9.25;2.63;;;22.30;48.70;;;;;;5022493;28;20107;-72
2022/05/27 13:49:52;;;;;;;6.97;2.40;;;22.30;46.10;;;;;;5025962;28;20398;-73
2022/05/27 13:52:40;;;;;;;8.80;2.28;;;22.30;45.40;;;;;;5036432;28;20035;-74